^^
Your Local Weather - Clay, NY Station Historical Data
Daily Summary for March 14, 2017 Units:  Metric    English   Both
« Previous Day
Next Day »
Daily Weekly Monthly Yearly Custom
  High: Low: Average:
Temperature: -5.2 °C -9.3 °C -7.4 °C
Dew Point: -7.6 °C -14.8 °C -10.3 °C
Humidity: 89% 49% 81%
Wind Speed: 16.1km/h 1.6km/h 7.2km/h
Wind Gust: 27.4km/h - -
Wind- - SSW
Pressure: 1023.9 hPa 1004.3 hPa -
Precipitation: 0 mm    
Historical Graphs
 
 
Tabular Data for March 14, 2017
Time Temperature Dew Point Pressure Wind Wind Speed Wind Gust Humidity Rainfall Rate (Hourly) solar
00:04 -5.8 °C -14.8 °C 1023.6 hPa ENE 1.6 km/h 3.2 km/h 49% 0 mm 0 W/m2
00:10 -5.8 °C -14.4 °C 1023.9 hPa ENE 1.6 km/h 1.6 km/h 51% 0 mm 0 W/m2
00:16 -5.8 °C -14.6 °C 1023.6 hPa NE 1.6 km/h 4.8 km/h 50% 0 mm 0 W/m2
00:22 -5.8 °C -14.3 °C 1023.6 hPa NNE 1.6 km/h 3.2 km/h 51% 0 mm 0 W/m2
00:28 -5.8 °C -14.3 °C 1023.6 hPa ENE 1.6 km/h 4.8 km/h 51% 0 mm 0 W/m2
00:34 -5.7 °C -14.3 °C 1023.6 hPa NNE 1.6 km/h 3.2 km/h 51% 0 mm 0 W/m2
00:40 -5.7 °C -14 °C 1023.2 hPa NE 1.6 km/h 1.6 km/h 52% 0 mm 0 W/m2
00:46 -5.7 °C -14 °C 1023.2 hPa ENE 1.6 km/h 1.6 km/h 52% 0 mm 0 W/m2
00:52 -5.7 °C -14.2 °C 1022.9 hPa ENE 1.6 km/h 4.8 km/h 51% 0 mm 0 W/m2
00:58 -5.6 °C -14.4 °C 1022.9 hPa ENE 3.2 km/h 4.8 km/h 50% 0 mm 0 W/m2
01:04 -5.6 °C -14.4 °C 1022.6 hPa SE 3.2 km/h 3.2 km/h 50% 0 mm 0 W/m2
01:10 -5.6 °C -13.9 °C 1022.6 hPa NE 3.2 km/h 4.8 km/h 52% 0 mm 0 W/m2
01:16 -5.6 °C -14.1 °C 1022.6 hPa ENE 3.2 km/h 4.8 km/h 51% 0 mm 0 W/m2
01:22 -5.5 °C -14.3 °C 1022.9 hPa ENE 3.2 km/h 6.4 km/h 50% 0 mm 0 W/m2
01:28 -5.5 °C -14.6 °C 1022.6 hPa ESE 4.8 km/h 6.4 km/h 49% 0 mm 0 W/m2
01:34 -5.4 °C -14.2 °C 1022.6 hPa ENE 3.2 km/h 4.8 km/h 50% 0 mm 0 W/m2
01:40 -5.4 °C -14.2 °C 1022.6 hPa East 3.2 km/h 3.2 km/h 50% 0 mm 0 W/m2
01:46 -5.4 °C -14.5 °C 1022.6 hPa East 3.2 km/h 4.8 km/h 49% 0 mm 0 W/m2
01:52 -5.4 °C -14.5 °C 1022.6 hPa ENE 4.8 km/h 4.8 km/h 49% 0 mm 0 W/m2
01:58 -5.4 °C -14.2 °C 1022.2 hPa East 4.8 km/h 8 km/h 50% 0 mm 0 W/m2
02:04 -5.4 °C -14.2 °C 1022.2 hPa ENE 4.8 km/h 6.4 km/h 50% 0 mm 0 W/m2
02:10 -5.3 °C -14.2 °C 1022.2 hPa East 4.8 km/h 4.8 km/h 50% 0 mm 0 W/m2
02:16 -5.3 °C -13.9 °C 1021.9 hPa ENE 4.8 km/h 4.8 km/h 51% 0 mm 0 W/m2
02:22 -5.3 °C -13.9 °C 1021.9 hPa ENE 6.4 km/h 11.3 km/h 51% 0 mm 0 W/m2
02:28 -5.3 °C -14.2 °C 1021.9 hPa East 8 km/h 11.3 km/h 50% 0 mm 0 W/m2
02:34 -5.3 °C -13.9 °C 1021.6 hPa ENE 8 km/h 8 km/h 51% 0 mm 0 W/m2
02:40 -5.3 °C -13.9 °C 1021.6 hPa East 6.4 km/h 6.4 km/h 51% 0 mm 0 W/m2
02:46 -5.3 °C -13.9 °C 1021.6 hPa NE 6.4 km/h 9.7 km/h 51% 0 mm 0 W/m2
02:52 -5.3 °C -13.7 °C 1021.2 hPa East 4.8 km/h 4.8 km/h 52% 0 mm 0 W/m2
02:58 -5.3 °C -13.9 °C 1021.6 hPa NE 3.2 km/h 4.8 km/h 51% 0 mm 0 W/m2
03:04 -5.3 °C -13.6 °C 1021.2 hPa NNE 3.2 km/h 11.3 km/h 52% 0 mm 0 W/m2
03:10 -5.2 °C -13.8 °C 1021.2 hPa ESE 4.8 km/h 4.8 km/h 51% 0 mm 0 W/m2
03:16 -5.2 °C -14.1 °C 1020.9 hPa East 6.4 km/h 11.3 km/h 50% 0 mm 0 W/m2
03:22 -5.2 °C -14.3 °C 1020.5 hPa East 6.4 km/h 6.4 km/h 49% 0 mm 0 W/m2
03:28 -5.3 °C -14.3 °C 1020.2 hPa ENE 4.8 km/h 6.4 km/h 49% 0 mm 0 W/m2
03:34 -5.3 °C -14.1 °C 1020.2 hPa ENE 3.2 km/h 6.4 km/h 50% 0 mm 0 W/m2
03:40 -5.3 °C -13.9 °C 1020.2 hPa East 4.8 km/h 4.8 km/h 51% 0 mm 0 W/m2
03:46 -5.7 °C -12.7 °C 1020.2 hPa ENE 6.4 km/h 14.5 km/h 58% 0 mm 0 W/m2
03:52 -5.9 °C -12.4 °C 1020.2 hPa ESE 6.4 km/h 6.4 km/h 60% 0 mm 0 W/m2
03:58 -6.1 °C -12.2 °C 1020.2 hPa ENE 6.4 km/h 8 km/h 62% 0 mm 0 W/m2
04:04 -6.1 °C -11.8 °C 1020.2 hPa ENE 4.8 km/h 6.4 km/h 64% 0 mm 0 W/m2
04:10 -6.2 °C -11.6 °C 1019.9 hPa East 4.8 km/h 4.8 km/h 66% 0 mm 0 W/m2
04:16 -6.4 °C -10.8 °C 1019.9 hPa East 4.8 km/h 8 km/h 71% 0 mm 0 W/m2
04:22 -6.7 °C -10.8 °C 1019.9 hPa ESE 4.8 km/h 6.4 km/h 73% 0 mm 0 W/m2
04:28 -6.9 °C -10.6 °C 1019.9 hPa ESE 3.2 km/h 8 km/h 75% 0 mm 0 W/m2
04:34 -7 °C -10.3 °C 1019.9 hPa ENE 4.8 km/h 9.7 km/h 77% 0 mm 0 W/m2
04:40 -7.1 °C -10 °C 1019.9 hPa ENE 4.8 km/h 4.8 km/h 80% 0 mm 0 W/m2
04:46 -7.1 °C -9.7 °C 1019.9 hPa SE 3.2 km/h 4.8 km/h 82% 0 mm 0 W/m2
04:52 -7.1 °C -9.5 °C 1019.9 hPa ENE 3.2 km/h 8 km/h 83% 0 mm 0 W/m2
04:58 -7.2 °C -9.4 °C 1019.5 hPa ENE 4.8 km/h 8 km/h 84% 0 mm 0 W/m2
05:04 -7.1 °C -9.3 °C 1019.5 hPa NE 6.4 km/h 6.4 km/h 84% 0 mm 0 W/m2
05:10 -7.1 °C -9.2 °C 1019.5 hPa East 6.4 km/h 6.4 km/h 85% 0 mm 0 W/m2
05:16 -7.1 °C -9.2 °C 1019.5 hPa NE 4.8 km/h 6.4 km/h 85% 0 mm 0 W/m2
05:22 -7.1 °C -9.2 °C 1019.5 hPa ENE 8 km/h 11.3 km/h 85% 0 mm 0 W/m2
05:28 -7.1 °C -9.2 °C 1019.2 hPa East 8 km/h 11.3 km/h 85% 0 mm 0 W/m2
05:34 -7.1 °C -9.2 °C 1019.2 hPa East 6.4 km/h 8 km/h 85% 0 mm 0 W/m2
05:40 -7.2 °C -9.1 °C 1019.2 hPa North 8 km/h 8 km/h 86% 0 mm 0 W/m2
05:46 -7.2 °C -9.1 °C 1019.2 hPa NE 8 km/h 9.7 km/h 86% 0 mm 0 W/m2
05:52 -7.2 °C -9.1 °C 1019.2 hPa ENE 3.2 km/h 4.8 km/h 86% 0 mm 0 W/m2
05:58 -7.2 °C -9.1 °C 1019.2 hPa ENE 4.8 km/h 4.8 km/h 86% 0 mm 0 W/m2
06:04 -7.2 °C -9.2 °C 1018.8 hPa East 6.4 km/h 11.3 km/h 86% 0 mm 0 W/m2
06:10 -7.2 °C -9.2 °C 1018.8 hPa NNE 6.4 km/h 6.4 km/h 86% 0 mm 0 W/m2
06:16 -7.2 °C -9.2 °C 1018.5 hPa East 6.4 km/h 12.9 km/h 86% 0 mm 0 W/m2
06:22 -7.3 °C -9.2 °C 1018.2 hPa ESE 8 km/h 12.9 km/h 86% 0 mm 0 W/m2
06:28 -7.3 °C -9.2 °C 1018.2 hPa ENE 6.4 km/h 12.9 km/h 86% 0 mm 0 W/m2
06:34 -7.3 °C -9.2 °C 1017.8 hPa NNW 8 km/h 16.1 km/h 86% 0 mm 0 W/m2
06:40 -7.3 °C -9.2 °C 1017.5 hPa East 8 km/h 9.7 km/h 86% 0 mm 0 W/m2
06:46 -7.2 °C -9 °C 1017.5 hPa ENE 8 km/h 11.3 km/h 87% 0 mm 0 W/m2
06:52 -7.2 °C -9 °C 1017.5 hPa NE 6.4 km/h 11.3 km/h 87% 0 mm 0 W/m2
06:58 -7.2 °C -8.9 °C 1017.2 hPa ENE 6.4 km/h 12.9 km/h 87% 0 mm 0 W/m2
07:04 -7.1 °C -8.8 °C 1017.5 hPa ENE 8 km/h 12.9 km/h 87% 0 mm 0 W/m2
07:10 -7 °C -8.8 °C 1017.2 hPa NE 6.4 km/h 12.9 km/h 87% 0 mm 0 W/m2
07:22 -6.8 °C -8.6 °C 1016.8 hPa East 4.8 km/h 11.3 km/h 87% 0 mm 0 W/m2
07:28 -6.8 °C -8.6 °C 1016.5 hPa NE 4.8 km/h 11.3 km/h 87% 0 mm 0 W/m2
07:34 -6.7 °C -8.5 °C 1016.5 hPa East 3.2 km/h 9.7 km/h 87% 0 mm 0 W/m2
07:40 -6.7 °C -8.5 °C 1016.5 hPa NNE 4.8 km/h 6.4 km/h 87% 0 mm 5 W/m2
07:46 -6.7 °C -8.4 °C 1016.5 hPa NE 4.8 km/h 8 km/h 87% 0 mm 7 W/m2
07:52 -6.6 °C -8.4 °C 1016.5 hPa NNE 3.2 km/h 4.8 km/h 87% 0 mm 9 W/m2
07:58 -6.6 °C -8.4 °C 1016.5 hPa ENE 3.2 km/h 6.4 km/h 87% 0 mm 12 W/m2
08:04 -6.7 °C -8.4 °C 1016.1 hPa NE 3.2 km/h 6.4 km/h 87% 0 mm 12 W/m2
08:10 -6.7 °C -8.4 °C 1016.1 hPa ENE 4.8 km/h 6.4 km/h 87% 0 mm 12 W/m2
08:18 -6.7 °C -8.5 °C 1016.1 hPa NNE 3.2 km/h 6.4 km/h 87% 0 mm 14 W/m2
08:24 -6.7 °C -8.3 °C 1016.1 hPa North 3.2 km/h 4.8 km/h 88% 0 mm 14 W/m2
08:30 -6.7 °C -8.3 °C 1016.1 hPa NE 3.2 km/h 3.2 km/h 88% 0 mm 14 W/m2
08:36 -6.7 °C -8.3 °C 1015.8 hPa NNE 3.2 km/h 4.8 km/h 88% 0 mm 16 W/m2
08:42 -6.7 °C -8.3 °C 1015.8 hPa NE 4.8 km/h 4.8 km/h 88% 0 mm 16 W/m2
08:48 -6.7 °C -8.3 °C 1015.8 hPa ENE 4.8 km/h 4.8 km/h 88% 0 mm 16 W/m2
08:54 -6.6 °C -8.3 °C 1015.5 hPa NNE 3.2 km/h 4.8 km/h 88% 0 mm 18 W/m2
09:00 -6.7 °C -8.3 °C 1015.5 hPa NNE 3.2 km/h 3.2 km/h 88% 0 mm 18 W/m2
09:06 -6.7 °C -8.3 °C 1015.5 hPa ENE 4.8 km/h 6.4 km/h 88% 0 mm 18 W/m2
09:12 -6.7 °C -8.3 °C 1015.5 hPa NE 4.8 km/h 6.4 km/h 88% 0 mm 18 W/m2
09:16 -6.7 °C -8.3 °C 1015.1 hPa ENE 4.8 km/h 6.4 km/h 88% 0 mm 18 W/m2
09:22 -6.6 °C -8.3 °C 1014.8 hPa NE 3.2 km/h 4.8 km/h 88% 0 mm 19 W/m2
09:28 -6.6 °C -8.3 °C 1014.8 hPa NNW 4.8 km/h 8 km/h 88% 0 mm 19 W/m2
09:34 -6.6 °C -8.2 °C 1014.8 hPa ENE 3.2 km/h 6.4 km/h 88% 0 mm 21 W/m2
09:40 -6.5 °C -8.2 °C 1014.4 hPa NNE 3.2 km/h 3.2 km/h 88% 0 mm 23 W/m2
09:46 -6.4 °C -8.1 °C 1014.4 hPa NNW 1.6 km/h 6.4 km/h 88% 0 mm 21 W/m2
09:52 -6.4 °C -8.1 °C 1014.1 hPa NNE 3.2 km/h 4.8 km/h 88% 0 mm 23 W/m2
09:58 -6.4 °C -8.1 °C 1013.8 hPa North 4.8 km/h 12.9 km/h 88% 0 mm 23 W/m2
10:04 -6.4 °C -8.1 °C 1013.8 hPa North 6.4 km/h 6.4 km/h 88% 0 mm 25 W/m2
10:10 -6.4 °C -8.1 °C 1013.4 hPa ENE 4.8 km/h 4.8 km/h 88% 0 mm 26 W/m2
10:16 -6.3 °C -8 °C 1013.4 hPa NNE 4.8 km/h 4.8 km/h 88% 0 mm 28 W/m2
10:22 -6.3 °C -7.9 °C 1012.8 hPa NNE 4.8 km/h 4.8 km/h 88% 0 mm 32 W/m2
10:28 -6.3 °C -7.9 °C 1012.4 hPa North 4.8 km/h 9.7 km/h 88% 0 mm 33 W/m2
10:34 -6.3 °C -8 °C 1012.1 hPa NNE 6.4 km/h 12.9 km/h 88% 0 mm 33 W/m2
10:40 -6.3 °C -7.9 °C 1011.7 hPa NNE 6.4 km/h 6.4 km/h 88% 0 mm 35 W/m2
10:46 -6.2 °C -7.9 °C 1012.1 hPa ENE 6.4 km/h 6.4 km/h 88% 0 mm 35 W/m2
10:52 -6.2 °C -7.9 °C 1011.7 hPa NNE 6.4 km/h 6.4 km/h 88% 0 mm 35 W/m2
10:58 -6.2 °C -7.7 °C 1011.7 hPa NNW 6.4 km/h 6.4 km/h 89% 0 mm 33 W/m2
11:04 -6.2 °C -7.7 °C 1011.7 hPa NW 4.8 km/h 6.4 km/h 89% 0 mm 32 W/m2
11:10 -6.2 °C -7.7 °C 1011.4 hPa NNW 4.8 km/h 4.8 km/h 89% 0 mm 33 W/m2
11:16 -6.2 °C -7.7 °C 1011.4 hPa North 4.8 km/h 8 km/h 89% 0 mm 37 W/m2
11:22 -6.1 °C -7.6 °C 1011.1 hPa North 4.8 km/h 4.8 km/h 89% 0 mm 37 W/m2
11:28 -6.1 °C -7.6 °C 1011.1 hPa North 4.8 km/h 4.8 km/h 89% 0 mm 37 W/m2
11:34 -6.2 °C -7.7 °C 1010.7 hPa NNW 4.8 km/h 6.4 km/h 89% 0 mm 37 W/m2
11:40 -6.4 °C -7.9 °C 1010.7 hPa NW 4.8 km/h 4.8 km/h 89% 0 mm 40 W/m2
11:46 -6.5 °C -8 °C 1010.7 hPa WNW 4.8 km/h 4.8 km/h 89% 0 mm 42 W/m2
11:52 -6.6 °C -8.3 °C 1010.7 hPa NW 4.8 km/h 4.8 km/h 88% 0 mm 42 W/m2
11:58 -6.7 °C -8.2 °C 1010.4 hPa NNW 4.8 km/h 9.7 km/h 89% 0 mm 39 W/m2
12:04 -6.9 °C -8.6 °C 1010 hPa NNW 8 km/h 11.3 km/h 88% 0 mm 39 W/m2
12:10 -7.1 °C -8.7 °C 1010 hPa NW 8 km/h 8 km/h 88% 0 mm 44 W/m2
12:16 -7.1 °C -8.6 °C 1009.7 hPa NNW 6.4 km/h 8 km/h 89% 0 mm 51 W/m2
12:22 -7.4 °C -9.1 °C 1009.7 hPa NNW 8 km/h 8 km/h 88% 0 mm 53 W/m2
12:28 -7.5 °C -9 °C 1009.7 hPa NNW 6.4 km/h 8 km/h 89% 0 mm 54 W/m2
12:34 -7.7 °C -9.3 °C 1009 hPa NNW 6.4 km/h 12.9 km/h 88% 0 mm 56 W/m2
12:40 -7.8 °C -9.3 °C 1009 hPa NNW 6.4 km/h 12.9 km/h 89% 0 mm 62 W/m2
12:46 -7.9 °C -9.6 °C 1009 hPa NW 6.4 km/h 12.9 km/h 88% 0 mm 65 W/m2
12:52 -7.9 °C -9.4 °C 1009 hPa NW 8 km/h 11.3 km/h 89% 0 mm 70 W/m2
12:58 -7.9 °C -9.4 °C 1008.7 hPa NNW 6.4 km/h 11.3 km/h 89% 0 mm 72 W/m2
13:04 -7.9 °C -9.4 °C 1008.7 hPa NNE 6.4 km/h 12.9 km/h 89% 0 mm 76 W/m2
13:10 -7.9 °C -9.4 °C 1008.4 hPa NNW 6.4 km/h 6.4 km/h 89% 0 mm 86 W/m2
13:16 -7.8 °C -9.3 °C 1008 hPa NNW 8 km/h 11.3 km/h 89% 0 mm 93 W/m2
13:22 -7.8 °C -9.3 °C 1008 hPa North 6.4 km/h 8 km/h 89% 0 mm 104 W/m2
13:28 -7.8 °C -9.3 °C 1008 hPa NNW 8 km/h 11.3 km/h 89% 0 mm 105 W/m2
13:34 -7.8 °C -9.3 °C 1008 hPa NNE 8 km/h 9.7 km/h 89% 0 mm 105 W/m2
13:40 -7.8 °C -9.3 °C 1007.7 hPa NNW 8 km/h 14.5 km/h 89% 0 mm 102 W/m2
13:46 -7.9 °C -9.6 °C 1007.3 hPa NW 8 km/h 14.5 km/h 88% 0 mm 86 W/m2
13:52 -8.1 °C -9.6 °C 1007 hPa NNW 8 km/h 14.5 km/h 89% 0 mm 81 W/m2
13:58 -8.1 °C -9.6 °C 1007 hPa WNW 11.3 km/h 14.5 km/h 89% 0 mm 81 W/m2
14:04 -8.2 °C -9.8 °C 1006.7 hPa NNW 9.7 km/h 11.3 km/h 88% 0 mm 79 W/m2
14:10 -8.2 °C -9.8 °C 1006.3 hPa NNW 8 km/h 8 km/h 88% 0 mm 88 W/m2
14:16 -8.1 °C -9.6 °C 1006.3 hPa NNW 8 km/h 8 km/h 89% 0 mm 97 W/m2
14:22 -8.1 °C -9.6 °C 1006.3 hPa NNW 8 km/h 8 km/h 89% 0 mm 105 W/m2
14:28 -8.1 °C -9.6 °C 1006.3 hPa North 8 km/h 11.3 km/h 89% 0 mm 105 W/m2
14:34 -8.1 °C -9.6 °C 1006.3 hPa North 8 km/h 8 km/h 89% 0 mm 111 W/m2
14:40 -8.1 °C -9.6 °C 1006.3 hPa North 9.7 km/h 9.7 km/h 89% 0 mm 114 W/m2
14:46 -8.1 °C -9.6 °C 1006 hPa North 9.7 km/h 9.7 km/h 89% 0 mm 114 W/m2
14:52 -8.1 °C -9.6 °C 1006 hPa NNW 8 km/h 11.3 km/h 89% 0 mm 105 W/m2
14:58 -8.1 °C -9.6 °C 1006 hPa NNW 9.7 km/h 14.5 km/h 89% 0 mm 102 W/m2
15:04 -8.2 °C -9.7 °C 1006 hPa NNW 9.7 km/h 9.7 km/h 89% 0 mm 98 W/m2
15:10 -8.2 °C -9.7 °C 1005.6 hPa North 9.7 km/h 9.7 km/h 89% 0 mm 93 W/m2
15:16 -8.3 °C -9.8 °C 1005.3 hPa NNW 11.3 km/h 24.1 km/h 89% 0 mm 91 W/m2
15:22 -8.3 °C -9.8 °C 1005.3 hPa WNW 11.3 km/h 20.9 km/h 89% 0 mm 86 W/m2
15:28 -8.3 °C -9.8 °C 1005.3 hPa NNW 11.3 km/h 20.9 km/h 89% 0 mm 83 W/m2
15:34 -8.3 °C -9.8 °C 1005 hPa North 11.3 km/h 27.4 km/h 89% 0 mm 86 W/m2
15:40 -8.4 °C -10 °C 1005 hPa North 12.9 km/h 12.9 km/h 88% 0 mm 79 W/m2
15:46 -8.4 °C -9.9 °C 1005 hPa NNW 12.9 km/h 17.7 km/h 89% 0 mm 62 W/m2
15:52 -8.6 °C -10.2 °C 1005 hPa NNW 14.5 km/h 17.7 km/h 88% 0 mm 40 W/m2
15:58 -8.6 °C -10.2 °C 1005 hPa NNW 12.9 km/h 20.9 km/h 88% 0 mm 39 W/m2
16:04 -8.7 °C -10.2 °C 1005 hPa North 12.9 km/h 16.1 km/h 89% 0 mm 47 W/m2
16:10 -8.7 °C -10.2 °C 1005 hPa NNW 12.9 km/h 16.1 km/h 89% 0 mm 53 W/m2
16:16 -8.7 °C -10.2 °C 1005 hPa NW 11.3 km/h 16.1 km/h 89% 0 mm 51 W/m2
16:22 -8.8 °C -10.4 °C 1005 hPa North 11.3 km/h 16.1 km/h 88% 0 mm 44 W/m2
16:28 -8.9 °C -10.5 °C 1004.6 hPa North 12.9 km/h 17.7 km/h 88% 0 mm 42 W/m2
16:34 -8.9 °C -10.6 °C 1004.6 hPa North 11.3 km/h 20.9 km/h 88% 0 mm 39 W/m2
16:40 -9.1 °C -10.7 °C 1004.6 hPa NNW 14.5 km/h 14.5 km/h 88% 0 mm 33 W/m2
16:46 -9.2 °C -10.8 °C 1004.3 hPa NNW 12.9 km/h 14.5 km/h 88% 0 mm 32 W/m2
16:52 -9.2 °C -10.8 °C 1004.3 hPa NNW 11.3 km/h 14.5 km/h 88% 0 mm 30 W/m2
16:58 -9.2 °C -10.8 °C 1004.3 hPa NNW 12.9 km/h 14.5 km/h 88% 0 mm 26 W/m2
17:04 -9.2 °C -10.8 °C 1004.3 hPa NW 12.9 km/h 12.9 km/h 88% 0 mm 28 W/m2
17:10 -9.3 °C -10.9 °C 1004.3 hPa NNW 12.9 km/h 12.9 km/h 88% 0 mm 30 W/m2
17:16 -9.3 °C -10.9 °C 1004.3 hPa NNW 12.9 km/h 12.9 km/h 88% 0 mm 32 W/m2
17:22 -9.3 °C -10.9 °C 1004.3 hPa NNW 12.9 km/h 12.9 km/h 88% 0 mm 35 W/m2
17:28 -9.3 °C -10.8 °C 1004.3 hPa NNW 11.3 km/h 12.9 km/h 89% 0 mm 35 W/m2
17:34 -9.3 °C -10.9 °C 1004.3 hPa North 12.9 km/h 14.5 km/h 88% 0 mm 37 W/m2
17:40 -9.3 °C -10.9 °C 1004.3 hPa NW 11.3 km/h 11.3 km/h 88% 0 mm 42 W/m2
17:46 -9.3 °C -10.9 °C 1004.3 hPa NNW 11.3 km/h 12.9 km/h 88% 0 mm 40 W/m2
17:52 -9.3 °C -10.9 °C 1004.3 hPa North 9.7 km/h 11.3 km/h 88% 0 mm 35 W/m2
17:58 -9.3 °C -10.8 °C 1004.3 hPa NNW 9.7 km/h 11.3 km/h 89% 0 mm 26 W/m2
18:04 -9.3 °C -10.8 °C 1004.6 hPa NNW 9.7 km/h 11.3 km/h 89% 0 mm 19 W/m2
18:10 -9.3 °C -10.8 °C 1004.6 hPa NNW 9.7 km/h 9.7 km/h 89% 0 mm 16 W/m2
18:16 -9.3 °C -10.9 °C 1004.6 hPa NW 11.3 km/h 11.3 km/h 88% 0 mm 14 W/m2
18:22 -9.3 °C -10.9 °C 1005 hPa NNW 11.3 km/h 16.1 km/h 88% 0 mm 12 W/m2
18:28 -9.3 °C -10.9 °C 1004.6 hPa WNW 9.7 km/h 16.1 km/h 88% 0 mm 11 W/m2
18:34 -9.3 °C -10.8 °C 1005 hPa NNW 9.7 km/h 9.7 km/h 89% 0 mm 9 W/m2
18:40 -9.3 °C -10.8 °C 1005 hPa NNW 9.7 km/h 9.7 km/h 89% 0 mm 7 W/m2
18:46 -9.2 °C -10.7 °C 1004.6 hPa NW 11.3 km/h 20.9 km/h 89% 0 mm 7 W/m2
18:52 -9.1 °C -10.6 °C 1004.6 hPa North 12.9 km/h 12.9 km/h 89% 0 mm 5 W/m2
18:58 -9 °C -10.5 °C 1004.3 hPa NNW 12.9 km/h 19.3 km/h 89% 0 mm 0 W/m2
19:04 -8.9 °C -10.4 °C 1004.3 hPa North 14.5 km/h 24.1 km/h 89% 0 mm 0 W/m2
19:10 -8.8 °C -10.3 °C 1004.3 hPa NNW 16.1 km/h 16.1 km/h 89% 0 mm 0 W/m2
19:16 -8.8 °C -10.3 °C 1004.6 hPa North 16.1 km/h 19.3 km/h 89% 0 mm 0 W/m2
19:22 -8.8 °C -10.3 °C 1004.6 hPa NNW 12.9 km/h 12.9 km/h 89% 0 mm 0 W/m2
19:28 -8.8 °C -10.3 °C 1004.6 hPa NW 9.7 km/h 12.9 km/h 89% 0 mm 0 W/m2
19:34 -8.8 °C -10.3 °C 1004.6 hPa NW 9.7 km/h 14.5 km/h 89% 0 mm 0 W/m2
19:40 -8.7 °C -10.2 °C 1004.3 hPa North 9.7 km/h 20.9 km/h 89% 0 mm 0 W/m2
19:46 -8.8 °C -10.3 °C 1004.6 hPa NW 11.3 km/h 20.9 km/h 89% 0 mm 0 W/m2
19:52 -8.8 °C -10.3 °C 1004.6 hPa NNW 9.7 km/h 11.3 km/h 89% 0 mm 0 W/m2
19:58 -8.8 °C -10.3 °C 1005 hPa NNW 6.4 km/h 12.9 km/h 89% 0 mm 0 W/m2
20:04 -8.8 °C -10.3 °C 1005 hPa NW 8 km/h 9.7 km/h 89% 0 mm 0 W/m2
20:10 -8.8 °C -10.3 °C 1005 hPa NNW 9.7 km/h 9.7 km/h 89% 0 mm 0 W/m2
20:16 -8.8 °C -10.3 °C 1005 hPa NW 8 km/h 12.9 km/h 89% 0 mm 0 W/m2
20:22 -8.8 °C -10.3 °C 1005 hPa NNW 9.7 km/h 9.7 km/h 89% 0 mm 0 W/m2
20:28 -8.8 °C -10.3 °C 1005 hPa NNW 9.7 km/h 16.1 km/h 89% 0 mm 0 W/m2
20:34 -8.8 °C -10.3 °C 1005 hPa NW 11.3 km/h 12.9 km/h 89% 0 mm 0 W/m2
20:40 -8.8 °C -10.3 °C 1005 hPa NW 11.3 km/h 11.3 km/h 89% 0 mm 0 W/m2
20:46 -8.8 °C -10.3 °C 1005 hPa NNW 9.7 km/h 14.5 km/h 89% 0 mm 0 W/m2
20:52 -8.8 °C -10.3 °C 1005 hPa NW 9.7 km/h 22.5 km/h 89% 0 mm 0 W/m2
20:58 -8.8 °C -10.3 °C 1005 hPa NW 9.7 km/h 22.5 km/h 89% 0 mm 0 W/m2
21:04 -8.8 °C -10.3 °C 1005 hPa NW 6.4 km/h 11.3 km/h 89% 0 mm 0 W/m2
21:10 -8.7 °C -10.2 °C 1005 hPa WNW 9.7 km/h 9.7 km/h 89% 0 mm 0 W/m2
21:16 -8.7 °C -10.2 °C 1005 hPa NW 9.7 km/h 20.9 km/h 89% 0 mm 0 W/m2
21:22 -8.7 °C -10.2 °C 1005 hPa NW 8 km/h 11.3 km/h 89% 0 mm 0 W/m2
21:28 -8.7 °C -10.2 °C 1005 hPa NW 8 km/h 11.3 km/h 89% 0 mm 0 W/m2
21:34 -8.8 °C -10.3 °C 1005 hPa NNW 8 km/h 12.9 km/h 89% 0 mm 0 W/m2
21:40 -8.8 °C -10.3 °C 1005.3 hPa WNW 8 km/h 12.9 km/h 89% 0 mm 0 W/m2
21:46 -8.8 °C -10.3 °C 1005 hPa NNW 11.3 km/h 12.9 km/h 89% 0 mm 0 W/m2
21:52 -8.8 °C -10.3 °C 1005 hPa North 8 km/h 11.3 km/h 89% 0 mm 0 W/m2
21:58 -8.8 °C -10.3 °C 1005 hPa NW 9.7 km/h 12.9 km/h 89% 0 mm 0 W/m2
22:04 -8.8 °C -10.3 °C 1005 hPa NW 9.7 km/h 19.3 km/h 89% 0 mm 0 W/m2
22:10 -8.8 °C -10.3 °C 1005 hPa NW 9.7 km/h 11.3 km/h 89% 0 mm 0 W/m2
22:16 -8.8 °C -10.3 °C 1005 hPa North 9.7 km/h 14.5 km/h 89% 0 mm 0 W/m2
22:22 -8.8 °C -10.3 °C 1005 hPa NW 8 km/h 14.5 km/h 89% 0 mm 0 W/m2
22:28 -8.8 °C -10.3 °C 1005.3 hPa NW 8 km/h 14.5 km/h 89% 0 mm 0 W/m2
22:34 -8.8 °C -10.3 °C 1005 hPa NNW 8 km/h 9.7 km/h 89% 0 mm 0 W/m2
22:40 -8.7 °C -10.2 °C 1005 hPa NW 6.4 km/h 8 km/h 89% 0 mm 0 W/m2
22:46 -8.7 °C -10.2 °C 1005 hPa NW 8 km/h 12.9 km/h 89% 0 mm 0 W/m2
22:52 -8.7 °C -10.2 °C 1005 hPa NW 9.7 km/h 9.7 km/h 89% 0 mm 0 W/m2
23:04 -8.7 °C -10.2 °C 1005 hPa NW 8 km/h 9.7 km/h 89% 0 mm 0 W/m2
23:12 -8.7 °C -10.2 °C 1004.6 hPa North 6.4 km/h 9.7 km/h 89% 0 mm 0 W/m2
23:18 -8.7 °C -10.2 °C 1004.6 hPa NW 6.4 km/h 9.7 km/h 89% 0 mm 0 W/m2
23:24 -8.7 °C -10.2 °C 1004.6 hPa NW 4.8 km/h 6.4 km/h 89% 0 mm 0 W/m2
23:30 -8.7 °C -10.2 °C 1004.6 hPa West 6.4 km/h 6.4 km/h 89% 0 mm 0 W/m2
23:36 -8.7 °C -10.2 °C 1004.3 hPa NNW 4.8 km/h 8 km/h 89% 0 mm 0 W/m2
23:42 -8.7 °C -10.2 °C 1004.3 hPa NW 4.8 km/h 4.8 km/h 89% 0 mm 0 W/m2
23:48 -8.7 °C -10.2 °C 1004.3 hPa NW 4.8 km/h 4.8 km/h 89% 0 mm 0 W/m2
23:54 -8.7 °C -10.2 °C 1004.3 hPa NW 8 km/h 16.1 km/h 89% 0 mm 0 W/m2
Country Meadow, Clay, NY, USA
Compliments of Weather Underground - 2 mb